sensor_id;sensor_type;location;lat;lon;timestamp;P1;durP1;ratioP1;P2;durP2;ratioP2
3523;SDS011;1776;53.330;11.498;2022-11-20T00:02:07;10.53;;;7.33;;
3523;SDS011;1776;53.330;11.498;2022-11-20T00:04:33;8.20;;;6.30;;
3523;SDS011;1776;53.330;11.498;2022-11-20T00:06:58;9.30;;;6.37;;
3523;SDS011;1776;53.330;11.498;2022-11-20T00:09:23;11.20;;;6.63;;
3523;SDS011;1776;53.330;11.498;2022-11-20T00:11:48;10.37;;;7.07;;
3523;SDS011;1776;53.330;11.498;2022-11-20T00:14:14;9.20;;;7.20;;
3523;SDS011;1776;53.330;11.498;2022-11-20T00:16:39;10.10;;;6.60;;
3523;SDS011;1776;53.330;11.498;2022-11-20T00:19:04;10.73;;;7.97;;
3523;SDS011;1776;53.330;11.498;2022-11-20T00:21:30;12.00;;;7.43;;
3523;SDS011;1776;53.330;11.498;2022-11-20T00:23:55;9.40;;;6.60;;
3523;SDS011;1776;53.330;11.498;2022-11-20T00:26:22;9.13;;;6.90;;
3523;SDS011;1776;53.330;11.498;2022-11-20T00:28:50;7.93;;;5.77;;
3523;SDS011;1776;53.330;11.498;2022-11-20T00:31:16;6.60;;;5.63;;
3523;SDS011;1776;53.330;11.498;2022-11-20T00:33:42;11.47;;;7.00;;
3523;SDS011;1776;53.330;11.498;2022-11-20T00:36:13;9.23;;;5.63;;
3523;SDS011;1776;53.330;11.498;2022-11-20T00:38:40;12.23;;;6.53;;
3523;SDS011;1776;53.330;11.498;2022-11-20T00:41:07;10.33;;;6.50;;
3523;SDS011;1776;53.330;11.498;2022-11-20T00:43:34;9.60;;;7.00;;
3523;SDS011;1776;53.330;11.498;2022-11-20T00:46:00;13.03;;;7.07;;
3523;SDS011;1776;53.330;11.498;2022-11-20T00:48:27;12.00;;;8.03;;
3523;SDS011;1776;53.330;11.498;2022-11-20T00:50:52;12.40;;;6.00;;
3523;SDS011;1776;53.330;11.498;2022-11-20T00:53:18;9.43;;;6.93;;
3523;SDS011;1776;53.330;11.498;2022-11-20T00:55:52;14.07;;;6.20;;
3523;SDS011;1776;53.330;11.498;2022-11-20T00:58:18;10.23;;;6.20;;
3523;SDS011;1776;53.330;11.498;2022-11-20T01:00:43;9.17;;;6.37;;
3523;SDS011;1776;53.330;11.498;2022-11-20T01:03:08;11.53;;;5.43;;
3523;SDS011;1776;53.330;11.498;2022-11-20T01:05:34;9.10;;;5.93;;
3523;SDS011;1776;53.330;11.498;2022-11-20T01:08:00;7.97;;;5.87;;
3523;SDS011;1776;53.330;11.498;2022-11-20T01:10:26;8.33;;;5.83;;
3523;SDS011;1776;53.330;11.498;2022-11-20T01:12:51;10.10;;;6.67;;
3523;SDS011;1776;53.330;11.498;2022-11-20T01:15:36;9.77;;;6.40;;
3523;SDS011;1776;53.330;11.498;2022-11-20T01:18:01;7.00;;;6.30;;
3523;SDS011;1776;53.330;11.498;2022-11-20T01:20:27;8.17;;;5.97;;
3523;SDS011;1776;53.330;11.498;2022-11-20T01:22:52;8.10;;;5.67;;
3523;SDS011;1776;53.330;11.498;2022-11-20T01:25:17;9.50;;;6.80;;
3523;SDS011;1776;53.330;11.498;2022-11-20T01:27:42;8.93;;;5.90;;
3523;SDS011;1776;53.330;11.498;2022-11-20T01:30:08;9.53;;;5.67;;
3523;SDS011;1776;53.330;11.498;2022-11-20T01:32:33;8.40;;;6.30;;
3523;SDS011;1776;53.330;11.498;2022-11-20T01:34:59;11.97;;;6.40;;
3523;SDS011;1776;53.330;11.498;2022-11-20T01:37:24;10.53;;;6.53;;
3523;SDS011;1776;53.330;11.498;2022-11-20T01:39:49;9.70;;;6.90;;
3523;SDS011;1776;53.330;11.498;2022-11-20T01:42:14;12.30;;;7.33;;
3523;SDS011;1776;53.330;11.498;2022-11-20T01:44:59;11.53;;;7.40;;
3523;SDS011;1776;53.330;11.498;2022-11-20T01:47:39;13.73;;;8.20;;
3523;SDS011;1776;53.330;11.498;2022-11-20T01:50:21;12.80;;;7.23;;
3523;SDS011;1776;53.330;11.498;2022-11-20T01:52:51;15.37;;;7.00;;
3523;SDS011;1776;53.330;11.498;2022-11-20T01:55:24;12.03;;;7.33;;
3523;SDS011;1776;53.330;11.498;2022-11-20T01:57:53;11.40;;;7.93;;
3523;SDS011;1776;53.330;11.498;2022-11-20T02:00:19;8.80;;;6.67;;
3523;SDS011;1776;53.330;11.498;2022-11-20T02:02:47;9.83;;;6.67;;
3523;SDS011;1776;53.330;11.498;2022-11-20T02:07:51;12.30;;;6.97;;
3523;SDS011;1776;53.330;11.498;2022-11-20T02:10:19;14.20;;;7.23;;
3523;SDS011;1776;53.330;11.498;2022-11-20T02:12:45;14.30;;;8.50;;
3523;SDS011;1776;53.330;11.498;2022-11-20T02:15:29;11.17;;;7.70;;
3523;SDS011;1776;53.330;11.498;2022-11-20T02:17:54;11.20;;;7.63;;
3523;SDS011;1776;53.330;11.498;2022-11-20T02:20:20;11.07;;;7.77;;
3523;SDS011;1776;53.330;11.498;2022-11-20T02:22:55;10.87;;;8.13;;
3523;SDS011;1776;53.330;11.498;2022-11-20T02:25:24;8.90;;;6.80;;
3523;SDS011;1776;53.330;11.498;2022-11-20T02:27:52;13.10;;;7.70;;
3523;SDS011;1776;53.330;11.498;2022-11-20T02:30:17;9.80;;;6.77;;
3523;SDS011;1776;53.330;11.498;2022-11-20T02:32:43;11.37;;;8.37;;
3523;SDS011;1776;53.330;11.498;2022-11-20T02:37:54;11.87;;;7.97;;
3523;SDS011;1776;53.330;11.498;2022-11-20T02:40:21;11.13;;;7.57;;
3523;SDS011;1776;53.330;11.498;2022-11-20T02:42:47;12.03;;;7.27;;
3523;SDS011;1776;53.330;11.498;2022-11-20T02:45:12;11.97;;;7.90;;
3523;SDS011;1776;53.330;11.498;2022-11-20T02:47:37;11.27;;;7.70;;
3523;SDS011;1776;53.330;11.498;2022-11-20T02:50:03;13.90;;;8.13;;
3523;SDS011;1776;53.330;11.498;2022-11-20T02:52:29;12.43;;;8.30;;
3523;SDS011;1776;53.330;11.498;2022-11-20T02:54:55;16.20;;;9.10;;
3523;SDS011;1776;53.330;11.498;2022-11-20T02:57:20;11.67;;;7.80;;
3523;SDS011;1776;53.330;11.498;2022-11-20T02:59:45;11.47;;;8.17;;
3523;SDS011;1776;53.330;11.498;2022-11-20T03:02:10;10.30;;;8.07;;
3523;SDS011;1776;53.330;11.498;2022-11-20T03:04:36;11.00;;;8.00;;
3523;SDS011;1776;53.330;11.498;2022-11-20T03:07:01;10.83;;;7.60;;
3523;SDS011;1776;53.330;11.498;2022-11-20T03:09:27;14.43;;;8.17;;
3523;SDS011;1776;53.330;11.498;2022-11-20T03:11:52;10.53;;;6.97;;
3523;SDS011;1776;53.330;11.498;2022-11-20T03:14:17;9.67;;;6.83;;
3523;SDS011;1776;53.330;11.498;2022-11-20T03:16:42;10.27;;;7.10;;
3523;SDS011;1776;53.330;11.498;2022-11-20T03:19:08;10.10;;;7.17;;
3523;SDS011;1776;53.330;11.498;2022-11-20T03:21:33;12.47;;;7.93;;
3523;SDS011;1776;53.330;11.498;2022-11-20T03:23:59;11.87;;;8.10;;
3523;SDS011;1776;53.330;11.498;2022-11-20T03:26:25;9.93;;;7.13;;
3523;SDS011;1776;53.330;11.498;2022-11-20T03:28:55;12.57;;;8.63;;
3523;SDS011;1776;53.330;11.498;2022-11-20T03:31:26;9.47;;;7.23;;
3523;SDS011;1776;53.330;11.498;2022-11-20T03:33:56;12.00;;;7.90;;
3523;SDS011;1776;53.330;11.498;2022-11-20T03:36:22;12.40;;;8.87;;
3523;SDS011;1776;53.330;11.498;2022-11-20T03:38:48;8.10;;;6.83;;
3523;SDS011;1776;53.330;11.498;2022-11-20T03:41:15;12.13;;;7.63;;
3523;SDS011;1776;53.330;11.498;2022-11-20T03:43:48;10.90;;;7.83;;
3523;SDS011;1776;53.330;11.498;2022-11-20T03:46:17;12.30;;;6.93;;
3523;SDS011;1776;53.330;11.498;2022-11-20T03:48:43;11.60;;;8.50;;
3523;SDS011;1776;53.330;11.498;2022-11-20T03:51:09;10.87;;;7.50;;
3523;SDS011;1776;53.330;11.498;2022-11-20T03:53:40;10.40;;;8.10;;
3523;SDS011;1776;53.330;11.498;2022-11-20T03:56:06;13.17;;;8.90;;
3523;SDS011;1776;53.330;11.498;2022-11-20T03:58:34;14.20;;;9.07;;
3523;SDS011;1776;53.330;11.498;2022-11-20T04:01:04;12.27;;;8.17;;
3523;SDS011;1776;53.330;11.498;2022-11-20T04:03:31;16.47;;;8.37;;
3523;SDS011;1776;53.330;11.498;2022-11-20T04:06:00;13.20;;;8.17;;
3523;SDS011;1776;53.330;11.498;2022-11-20T04:08:30;14.93;;;8.60;;
3523;SDS011;1776;53.330;11.498;2022-11-20T04:10:56;12.10;;;7.60;;
3523;SDS011;1776;53.330;11.498;2022-11-20T04:13:21;11.03;;;8.50;;
3523;SDS011;1776;53.330;11.498;2022-11-20T04:15:46;14.27;;;8.27;;
3523;SDS011;1776;53.330;11.498;2022-11-20T04:18:11;13.13;;;8.60;;
3523;SDS011;1776;53.330;11.498;2022-11-20T04:20:37;14.83;;;9.00;;
3523;SDS011;1776;53.330;11.498;2022-11-20T04:23:02;14.87;;;9.63;;
3523;SDS011;1776;53.330;11.498;2022-11-20T04:25:27;11.83;;;8.80;;
3523;SDS011;1776;53.330;11.498;2022-11-20T04:27:52;11.43;;;8.83;;
3523;SDS011;1776;53.330;11.498;2022-11-20T04:30:18;16.70;;;10.20;;
3523;SDS011;1776;53.330;11.498;2022-11-20T04:32:43;16.13;;;9.67;;
3523;SDS011;1776;53.330;11.498;2022-11-20T04:35:08;13.60;;;9.20;;
3523;SDS011;1776;53.330;11.498;2022-11-20T04:37:33;16.30;;;9.67;;
3523;SDS011;1776;53.330;11.498;2022-11-20T04:39:59;10.63;;;8.53;;
3523;SDS011;1776;53.330;11.498;2022-11-20T04:42:24;11.57;;;9.10;;
3523;SDS011;1776;53.330;11.498;2022-11-20T04:44:55;16.50;;;9.60;;
3523;SDS011;1776;53.330;11.498;2022-11-20T04:47:21;18.13;;;10.83;;
3523;SDS011;1776;53.330;11.498;2022-11-20T04:49:47;15.50;;;10.30;;
3523;SDS011;1776;53.330;11.498;2022-11-20T04:52:12;13.17;;;9.77;;
3523;SDS011;1776;53.330;11.498;2022-11-20T04:54:38;13.97;;;9.80;;
3523;SDS011;1776;53.330;11.498;2022-11-20T04:57:03;15.10;;;9.33;;
3523;SDS011;1776;53.330;11.498;2022-11-20T04:59:28;14.17;;;9.77;;
3523;SDS011;1776;53.330;11.498;2022-11-20T05:01:54;15.70;;;9.43;;
3523;SDS011;1776;53.330;11.498;2022-11-20T05:04:19;9.73;;;8.30;;
3523;SDS011;1776;53.330;11.498;2022-11-20T05:06:44;15.43;;;9.27;;
3523;SDS011;1776;53.330;11.498;2022-11-20T05:09:10;14.83;;;9.60;;
3523;SDS011;1776;53.330;11.498;2022-11-20T05:11:36;9.67;;;7.97;;
3523;SDS011;1776;53.330;11.498;2022-11-20T05:14:01;12.43;;;9.60;;
3523;SDS011;1776;53.330;11.498;2022-11-20T05:16:27;13.87;;;10.20;;
3523;SDS011;1776;53.330;11.498;2022-11-20T05:18:52;13.03;;;9.57;;
3523;SDS011;1776;53.330;11.498;2022-11-20T05:21:19;14.70;;;10.23;;
3523;SDS011;1776;53.330;11.498;2022-11-20T05:23:45;12.30;;;8.53;;
3523;SDS011;1776;53.330;11.498;2022-11-20T05:26:15;15.23;;;10.10;;
3523;SDS011;1776;53.330;11.498;2022-11-20T05:28:43;13.13;;;9.47;;
3523;SDS011;1776;53.330;11.498;2022-11-20T05:31:09;12.93;;;9.53;;
3523;SDS011;1776;53.330;11.498;2022-11-20T05:33:39;13.90;;;9.40;;
3523;SDS011;1776;53.330;11.498;2022-11-20T05:36:05;14.50;;;10.13;;
3523;SDS011;1776;53.330;11.498;2022-11-20T05:38:31;12.83;;;10.37;;
3523;SDS011;1776;53.330;11.498;2022-11-20T05:41:03;12.87;;;9.87;;
3523;SDS011;1776;53.330;11.498;2022-11-20T05:43:36;13.83;;;9.50;;
3523;SDS011;1776;53.330;11.498;2022-11-20T05:46:03;13.47;;;9.93;;
3523;SDS011;1776;53.330;11.498;2022-11-20T05:48:31;13.27;;;9.60;;
3523;SDS011;1776;53.330;11.498;2022-11-20T05:50:57;14.93;;;9.80;;
3523;SDS011;1776;53.330;11.498;2022-11-20T05:53:24;15.00;;;10.00;;
3523;SDS011;1776;53.330;11.498;2022-11-20T05:55:56;14.77;;;10.17;;
3523;SDS011;1776;53.330;11.498;2022-11-20T05:58:22;14.10;;;9.60;;
3523;SDS011;1776;53.330;11.498;2022-11-20T06:00:47;11.90;;;9.17;;
3523;SDS011;1776;53.330;11.498;2022-11-20T06:03:12;14.77;;;10.33;;
3523;SDS011;1776;53.330;11.498;2022-11-20T06:05:38;17.30;;;11.03;;
3523;SDS011;1776;53.330;11.498;2022-11-20T06:08:03;13.13;;;10.20;;
3523;SDS011;1776;53.330;11.498;2022-11-20T06:10:28;13.17;;;9.73;;
3523;SDS011;1776;53.330;11.498;2022-11-20T06:12:56;12.67;;;10.13;;
3523;SDS011;1776;53.330;11.498;2022-11-20T06:15:22;15.33;;;9.37;;
3523;SDS011;1776;53.330;11.498;2022-11-20T06:17:51;14.33;;;10.23;;
3523;SDS011;1776;53.330;11.498;2022-11-20T06:20:17;16.40;;;11.27;;
3523;SDS011;1776;53.330;11.498;2022-11-20T06:22:42;13.70;;;10.10;;
3523;SDS011;1776;53.330;11.498;2022-11-20T06:25:07;12.90;;;9.73;;
3523;SDS011;1776;53.330;11.498;2022-11-20T06:27:33;15.67;;;8.40;;
3523;SDS011;1776;53.330;11.498;2022-11-20T06:29:58;15.53;;;10.77;;
3523;SDS011;1776;53.330;11.498;2022-11-20T06:32:23;14.93;;;10.33;;
3523;SDS011;1776;53.330;11.498;2022-11-20T06:34:48;16.80;;;11.27;;
3523;SDS011;1776;53.330;11.498;2022-11-20T06:37:14;19.13;;;10.90;;
3523;SDS011;1776;53.330;11.498;2022-11-20T06:39:39;15.93;;;10.13;;
3523;SDS011;1776;53.330;11.498;2022-11-20T06:42:04;13.10;;;9.30;;
3523;SDS011;1776;53.330;11.498;2022-11-20T06:44:30;16.40;;;10.97;;
3523;SDS011;1776;53.330;11.498;2022-11-20T06:46:55;15.60;;;10.40;;
3523;SDS011;1776;53.330;11.498;2022-11-20T06:49:20;14.70;;;10.60;;
3523;SDS011;1776;53.330;11.498;2022-11-20T06:51:45;16.60;;;10.93;;
3523;SDS011;1776;53.330;11.498;2022-11-20T06:54:11;16.13;;;10.40;;
3523;SDS011;1776;53.330;11.498;2022-11-20T06:56:36;15.93;;;11.60;;
3523;SDS011;1776;53.330;11.498;2022-11-20T06:59:05;18.80;;;11.23;;
3523;SDS011;1776;53.330;11.498;2022-11-20T07:01:31;14.23;;;10.53;;
3523;SDS011;1776;53.330;11.498;2022-11-20T07:03:56;15.00;;;11.50;;
3523;SDS011;1776;53.330;11.498;2022-11-20T07:06:22;18.73;;;12.80;;
3523;SDS011;1776;53.330;11.498;2022-11-20T07:08:47;16.10;;;11.57;;
3523;SDS011;1776;53.330;11.498;2022-11-20T07:11:14;23.20;;;11.57;;
3523;SDS011;1776;53.330;11.498;2022-11-20T07:13:40;19.90;;;12.17;;
3523;SDS011;1776;53.330;11.498;2022-11-20T07:16:06;15.47;;;12.03;;
3523;SDS011;1776;53.330;11.498;2022-11-20T07:18:32;17.13;;;11.40;;
3523;SDS011;1776;53.330;11.498;2022-11-20T07:21:05;15.03;;;10.70;;
3523;SDS011;1776;53.330;11.498;2022-11-20T07:23:32;20.47;;;11.63;;
3523;SDS011;1776;53.330;11.498;2022-11-20T07:25:57;16.10;;;10.30;;
3523;SDS011;1776;53.330;11.498;2022-11-20T07:28:23;17.17;;;10.97;;
3523;SDS011;1776;53.330;11.498;2022-11-20T07:30:51;17.20;;;11.73;;
3523;SDS011;1776;53.330;11.498;2022-11-20T07:33:17;20.33;;;11.40;;
3523;SDS011;1776;53.330;11.498;2022-11-20T07:35:43;17.63;;;11.97;;
3523;SDS011;1776;53.330;11.498;2022-11-20T07:38:08;19.33;;;11.83;;
3523;SDS011;1776;53.330;11.498;2022-11-20T07:40:34;18.60;;;12.33;;
3523;SDS011;1776;53.330;11.498;2022-11-20T07:42:59;18.93;;;12.63;;
3523;SDS011;1776;53.330;11.498;2022-11-20T07:45:24;19.90;;;13.73;;
3523;SDS011;1776;53.330;11.498;2022-11-20T07:47:50;18.70;;;12.20;;
3523;SDS011;1776;53.330;11.498;2022-11-20T07:50:16;16.80;;;11.40;;
3523;SDS011;1776;53.330;11.498;2022-11-20T07:52:42;27.00;;;16.57;;
3523;SDS011;1776;53.330;11.498;2022-11-20T07:55:08;19.30;;;12.30;;
3523;SDS011;1776;53.330;11.498;2022-11-20T07:57:34;22.57;;;13.97;;
3523;SDS011;1776;53.330;11.498;2022-11-20T08:00:00;25.67;;;16.30;;
3523;SDS011;1776;53.330;11.498;2022-11-20T08:02:25;21.37;;;13.57;;
3523;SDS011;1776;53.330;11.498;2022-11-20T08:04:50;23.30;;;14.17;;
3523;SDS011;1776;53.330;11.498;2022-11-20T08:07:15;18.27;;;12.73;;
3523;SDS011;1776;53.330;11.498;2022-11-20T08:09:41;23.80;;;15.77;;
3523;SDS011;1776;53.330;11.498;2022-11-20T08:12:06;24.43;;;15.80;;
3523;SDS011;1776;53.330;11.498;2022-11-20T08:14:50;19.27;;;12.90;;
3523;SDS011;1776;53.330;11.498;2022-11-20T08:17:15;19.50;;;13.10;;
3523;SDS011;1776;53.330;11.498;2022-11-20T08:19:40;17.60;;;11.93;;
3523;SDS011;1776;53.330;11.498;2022-11-20T08:22:06;19.97;;;13.27;;
3523;SDS011;1776;53.330;11.498;2022-11-20T08:24:31;18.50;;;11.50;;
3523;SDS011;1776;53.330;11.498;2022-11-20T08:26:59;19.00;;;11.70;;
3523;SDS011;1776;53.330;11.498;2022-11-20T08:29:28;19.37;;;12.37;;
3523;SDS011;1776;53.330;11.498;2022-11-20T08:31:53;17.90;;;12.30;;
3523;SDS011;1776;53.330;11.498;2022-11-20T08:34:19;16.80;;;10.47;;
3523;SDS011;1776;53.330;11.498;2022-11-20T08:36:44;16.90;;;11.00;;
3523;SDS011;1776;53.330;11.498;2022-11-20T08:39:13;19.40;;;11.93;;
3523;SDS011;1776;53.330;11.498;2022-11-20T08:41:39;17.33;;;11.48;;
3523;SDS011;1776;53.330;11.498;2022-11-20T08:44:05;15.27;;;10.40;;
3523;SDS011;1776;53.330;11.498;2022-11-20T08:46:35;16.97;;;12.10;;
3523;SDS011;1776;53.330;11.498;2022-11-20T08:49:06;15.87;;;11.33;;
3523;SDS011;1776;53.330;11.498;2022-11-20T08:51:32;15.70;;;10.70;;
3523;SDS011;1776;53.330;11.498;2022-11-20T08:53:57;15.93;;;9.57;;
3523;SDS011;1776;53.330;11.498;2022-11-20T08:56:23;14.13;;;10.60;;
3523;SDS011;1776;53.330;11.498;2022-11-20T08:58:49;16.90;;;12.03;;
3523;SDS011;1776;53.330;11.498;2022-11-20T09:01:16;17.47;;;12.03;;
3523;SDS011;1776;53.330;11.498;2022-11-20T09:03:41;20.00;;;12.57;;
3523;SDS011;1776;53.330;11.498;2022-11-20T09:06:07;17.67;;;11.87;;
3523;SDS011;1776;53.330;11.498;2022-11-20T09:08:32;14.60;;;11.50;;
3523;SDS011;1776;53.330;11.498;2022-11-20T09:11:00;18.40;;;13.47;;
3523;SDS011;1776;53.330;11.498;2022-11-20T09:13:26;16.73;;;11.53;;
3523;SDS011;1776;53.330;11.498;2022-11-20T09:15:53;19.37;;;12.57;;
3523;SDS011;1776;53.330;11.498;2022-11-20T09:18:22;17.77;;;11.90;;
3523;SDS011;1776;53.330;11.498;2022-11-20T09:20:48;20.43;;;12.67;;
3523;SDS011;1776;53.330;11.498;2022-11-20T09:23:14;18.17;;;12.67;;
3523;SDS011;1776;53.330;11.498;2022-11-20T09:25:40;17.53;;;12.80;;
3523;SDS011;1776;53.330;11.498;2022-11-20T09:28:05;14.77;;;10.43;;
3523;SDS011;1776;53.330;11.498;2022-11-20T09:30:30;21.10;;;13.47;;
3523;SDS011;1776;53.330;11.498;2022-11-20T09:32:56;16.13;;;12.23;;
3523;SDS011;1776;53.330;11.498;2022-11-20T09:35:21;14.77;;;10.80;;
3523;SDS011;1776;53.330;11.498;2022-11-20T09:37:47;15.43;;;11.43;;
3523;SDS011;1776;53.330;11.498;2022-11-20T09:40:19;17.03;;;11.50;;
3523;SDS011;1776;53.330;11.498;2022-11-20T09:51:31;15.07;;;10.33;;
3523;SDS011;1776;53.330;11.498;2022-11-20T09:56:45;11.40;;;7.20;;
3523;SDS011;1776;53.330;11.498;2022-11-20T09:59:26;14.67;;;9.13;;
3523;SDS011;1776;53.330;11.498;2022-11-20T10:01:58;12.53;;;8.40;;
3523;SDS011;1776;53.330;11.498;2022-11-20T10:04:26;11.30;;;7.70;;
3523;SDS011;1776;53.330;11.498;2022-11-20T10:09:27;8.90;;;6.90;;
3523;SDS011;1776;53.330;11.498;2022-11-20T10:20:15;8.70;;;7.70;;
3523;SDS011;1776;53.330;11.498;2022-11-20T10:25:16;15.07;;;8.03;;
3523;SDS011;1776;53.330;11.498;2022-11-20T10:30:10;10.80;;;8.00;;
3523;SDS011;1776;53.330;11.498;2022-11-20T10:32:41;10.13;;;8.43;;
3523;SDS011;1776;53.330;11.498;2022-11-20T10:37:55;12.53;;;7.53;;
3523;SDS011;1776;53.330;11.498;2022-11-20T10:40:27;10.63;;;8.50;;
3523;SDS011;1776;53.330;11.498;2022-11-20T10:42:59;11.83;;;8.70;;
3523;SDS011;1776;53.330;11.498;2022-11-20T10:47:54;11.17;;;8.30;;
3523;SDS011;1776;53.330;11.498;2022-11-20T10:50:25;10.77;;;9.63;;
3523;SDS011;1776;53.330;11.498;2022-11-20T10:52:56;12.87;;;7.10;;
3523;SDS011;1776;53.330;11.498;2022-11-20T10:55:37;8.87;;;7.27;;
3523;SDS011;1776;53.330;11.498;2022-11-20T11:01:11;6.77;;;5.33;;
3523;SDS011;1776;53.330;11.498;2022-11-20T11:03:40;7.83;;;7.00;;
3523;SDS011;1776;53.330;11.498;2022-11-20T11:06:19;7.03;;;5.80;;
3523;SDS011;1776;53.330;11.498;2022-11-20T11:08:51;7.67;;;5.43;;
3523;SDS011;1776;53.330;11.498;2022-11-20T11:11:38;7.50;;;6.23;;
3523;SDS011;1776;53.330;11.498;2022-11-20T11:14:13;6.90;;;4.33;;
3523;SDS011;1776;53.330;11.498;2022-11-20T11:16:55;6.73;;;5.60;;
3523;SDS011;1776;53.330;11.498;2022-11-20T11:19:22;7.70;;;5.67;;
3523;SDS011;1776;53.330;11.498;2022-11-20T11:21:49;6.80;;;5.23;;
3523;SDS011;1776;53.330;11.498;2022-11-20T11:24:24;9.53;;;6.77;;
3523;SDS011;1776;53.330;11.498;2022-11-20T11:26:58;10.80;;;7.47;;
3523;SDS011;1776;53.330;11.498;2022-11-20T11:29:29;9.30;;;5.90;;
3523;SDS011;1776;53.330;11.498;2022-11-20T11:32:11;6.73;;;5.60;;
3523;SDS011;1776;53.330;11.498;2022-11-20T11:34:38;5.50;;;4.70;;
3523;SDS011;1776;53.330;11.498;2022-11-20T11:37:04;5.63;;;4.43;;
3523;SDS011;1776;53.330;11.498;2022-11-20T11:39:35;4.83;;;4.33;;
3523;SDS011;1776;53.330;11.498;2022-11-20T11:42:06;6.10;;;4.97;;
3523;SDS011;1776;53.330;11.498;2022-11-20T11:44:36;6.33;;;5.50;;
3523;SDS011;1776;53.330;11.498;2022-11-20T11:47:43;6.47;;;4.90;;
3523;SDS011;1776;53.330;11.498;2022-11-20T11:52:36;7.63;;;5.13;;
3523;SDS011;1776;53.330;11.498;2022-11-20T11:55:56;8.67;;;5.17;;
3523;SDS011;1776;53.330;11.498;2022-11-20T12:00:39;6.67;;;5.57;;
3523;SDS011;1776;53.330;11.498;2022-11-20T12:03:16;5.37;;;3.90;;
3523;SDS011;1776;53.330;11.498;2022-11-20T12:05:51;7.90;;;5.50;;
3523;SDS011;1776;53.330;11.498;2022-11-20T12:11:10;6.27;;;5.70;;
3523;SDS011;1776;53.330;11.498;2022-11-20T12:13:50;11.20;;;6.13;;
3523;SDS011;1776;53.330;11.498;2022-11-20T12:16:20;4.83;;;4.33;;
3523;SDS011;1776;53.330;11.498;2022-11-20T12:18:50;8.20;;;5.50;;
3523;SDS011;1776;53.330;11.498;2022-11-20T12:21:21;4.00;;;3.10;;
3523;SDS011;1776;53.330;11.498;2022-11-20T12:23:56;4.90;;;4.27;;
3523;SDS011;1776;53.330;11.498;2022-11-20T12:29:12;5.20;;;4.20;;
3523;SDS011;1776;53.330;11.498;2022-11-20T12:31:52;4.73;;;4.10;;
3523;SDS011;1776;53.330;11.498;2022-11-20T12:34:36;4.80;;;3.50;;
3523;SDS011;1776;53.330;11.498;2022-11-20T12:37:32;5.93;;;3.90;;
3523;SDS011;1776;53.330;11.498;2022-11-20T12:40:02;5.03;;;3.60;;
3523;SDS011;1776;53.330;11.498;2022-11-20T12:43:04;4.20;;;3.63;;
3523;SDS011;1776;53.330;11.498;2022-11-20T12:48:52;4.07;;;3.43;;
3523;SDS011;1776;53.330;11.498;2022-11-20T12:59:48;4.07;;;3.60;;
3523;SDS011;1776;53.330;11.498;2022-11-20T13:02:33;5.17;;;3.90;;
3523;SDS011;1776;53.330;11.498;2022-11-20T13:07:46;5.33;;;3.93;;
3523;SDS011;1776;53.330;11.498;2022-11-20T13:13:02;3.53;;;2.70;;
3523;SDS011;1776;53.330;11.498;2022-11-20T13:18:27;2.97;;;2.77;;
3523;SDS011;1776;53.330;11.498;2022-11-20T13:20:55;4.23;;;2.70;;
3523;SDS011;1776;53.330;11.498;2022-11-20T13:23:27;4.83;;;3.77;;
3523;SDS011;1776;53.330;11.498;2022-11-20T13:26:03;3.73;;;3.20;;
3523;SDS011;1776;53.330;11.498;2022-11-20T13:28:30;3.50;;;2.80;;
3523;SDS011;1776;53.330;11.498;2022-11-20T13:30:56;3.43;;;2.90;;
3523;SDS011;1776;53.330;11.498;2022-11-20T13:35:55;10.27;;;3.87;;
3523;SDS011;1776;53.330;11.498;2022-11-20T13:38:23;3.53;;;3.23;;
3523;SDS011;1776;53.330;11.498;2022-11-20T13:40:52;6.40;;;3.97;;
3523;SDS011;1776;53.330;11.498;2022-11-20T13:45:42;6.50;;;3.50;;
3523;SDS011;1776;53.330;11.498;2022-11-20T13:48:20;4.30;;;3.40;;
3523;SDS011;1776;53.330;11.498;2022-11-20T13:53:43;6.90;;;4.30;;
3523;SDS011;1776;53.330;11.498;2022-11-20T13:59:55;5.97;;;4.93;;
3523;SDS011;1776;53.330;11.498;2022-11-20T14:02:25;3.70;;;2.87;;
3523;SDS011;1776;53.330;11.498;2022-11-20T14:04:53;3.83;;;3.47;;
3523;SDS011;1776;53.330;11.498;2022-11-20T14:07:23;6.37;;;4.53;;
3523;SDS011;1776;53.330;11.498;2022-11-20T14:09:55;6.40;;;4.17;;
3523;SDS011;1776;53.330;11.498;2022-11-20T14:12:23;4.33;;;3.20;;
3523;SDS011;1776;53.330;11.498;2022-11-20T14:14:54;4.23;;;2.90;;
3523;SDS011;1776;53.330;11.498;2022-11-20T14:17:21;2.60;;;2.40;;
3523;SDS011;1776;53.330;11.498;2022-11-20T14:19:50;3.13;;;2.80;;
3523;SDS011;1776;53.330;11.498;2022-11-20T14:22:18;3.23;;;2.93;;
3523;SDS011;1776;53.330;11.498;2022-11-20T14:24:44;3.80;;;3.40;;
3523;SDS011;1776;53.330;11.498;2022-11-20T14:27:27;2.53;;;2.33;;
3523;SDS011;1776;53.330;11.498;2022-11-20T14:29:53;4.80;;;3.37;;
3523;SDS011;1776;53.330;11.498;2022-11-20T14:32:19;3.67;;;3.30;;
3523;SDS011;1776;53.330;11.498;2022-11-20T14:34:49;3.97;;;2.93;;
3523;SDS011;1776;53.330;11.498;2022-11-20T14:37:23;3.87;;;2.47;;
3523;SDS011;1776;53.330;11.498;2022-11-20T14:39:53;3.40;;;2.50;;
3523;SDS011;1776;53.330;11.498;2022-11-20T14:42:26;4.43;;;2.77;;
3523;SDS011;1776;53.330;11.498;2022-11-20T14:44:54;3.73;;;2.47;;
3523;SDS011;1776;53.330;11.498;2022-11-20T14:47:21;3.23;;;2.50;;
3523;SDS011;1776;53.330;11.498;2022-11-20T14:49:50;2.87;;;2.50;;
3523;SDS011;1776;53.330;11.498;2022-11-20T14:52:20;3.03;;;2.37;;
3523;SDS011;1776;53.330;11.498;2022-11-20T14:54:48;2.80;;;2.60;;
3523;SDS011;1776;53.330;11.498;2022-11-20T14:57:23;5.10;;;2.90;;
3523;SDS011;1776;53.330;11.498;2022-11-20T15:02:43;2.03;;;1.93;;
3523;SDS011;1776;53.330;11.498;2022-11-20T15:05:09;2.73;;;2.43;;
3523;SDS011;1776;53.330;11.498;2022-11-20T15:07:36;2.90;;;2.60;;
3523;SDS011;1776;53.330;11.498;2022-11-20T15:10:08;3.70;;;2.33;;
3523;SDS011;1776;53.330;11.498;2022-11-20T15:12:40;2.70;;;2.50;;
3523;SDS011;1776;53.330;11.498;2022-11-20T15:15:12;2.20;;;2.00;;
3523;SDS011;1776;53.330;11.498;2022-11-20T15:17:41;3.57;;;2.50;;
3523;SDS011;1776;53.330;11.498;2022-11-20T15:20:14;3.07;;;2.57;;
3523;SDS011;1776;53.330;11.498;2022-11-20T15:22:41;3.13;;;2.53;;
3523;SDS011;1776;53.330;11.498;2022-11-20T15:25:16;2.33;;;2.10;;
3523;SDS011;1776;53.330;11.498;2022-11-20T15:27:43;3.47;;;2.23;;
3523;SDS011;1776;53.330;11.498;2022-11-20T15:30:12;3.23;;;2.27;;
3523;SDS011;1776;53.330;11.498;2022-11-20T15:32:39;4.30;;;2.50;;
3523;SDS011;1776;53.330;11.498;2022-11-20T15:35:05;4.30;;;3.90;;
3523;SDS011;1776;53.330;11.498;2022-11-20T15:37:31;4.57;;;3.77;;
3523;SDS011;1776;53.330;11.498;2022-11-20T15:39:56;5.90;;;3.90;;
3523;SDS011;1776;53.330;11.498;2022-11-20T15:42:21;6.63;;;3.60;;
3523;SDS011;1776;53.330;11.498;2022-11-20T15:44:46;3.80;;;3.50;;
3523;SDS011;1776;53.330;11.498;2022-11-20T15:47:12;4.50;;;2.97;;
3523;SDS011;1776;53.330;11.498;2022-11-20T15:49:37;5.27;;;4.77;;
3523;SDS011;1776;53.330;11.498;2022-11-20T15:52:02;3.87;;;3.33;;
3523;SDS011;1776;53.330;11.498;2022-11-20T15:54:28;14.20;;;6.10;;
3523;SDS011;1776;53.330;11.498;2022-11-20T15:56:53;6.50;;;4.97;;
3523;SDS011;1776;53.330;11.498;2022-11-20T15:59:19;5.20;;;4.60;;
3523;SDS011;1776;53.330;11.498;2022-11-20T16:01:44;3.93;;;3.50;;
3523;SDS011;1776;53.330;11.498;2022-11-20T16:04:10;3.60;;;2.80;;
3523;SDS011;1776;53.330;11.498;2022-11-20T16:06:37;3.70;;;2.97;;
3523;SDS011;1776;53.330;11.498;2022-11-20T16:09:03;6.53;;;2.63;;
3523;SDS011;1776;53.330;11.498;2022-11-20T16:11:28;11.50;;;4.30;;
3523;SDS011;1776;53.330;11.498;2022-11-20T16:13:54;5.53;;;3.70;;
3523;SDS011;1776;53.330;11.498;2022-11-20T16:16:38;7.57;;;5.70;;
3523;SDS011;1776;53.330;11.498;2022-11-20T16:19:05;6.93;;;6.23;;
3523;SDS011;1776;53.330;11.498;2022-11-20T16:21:31;5.50;;;4.77;;
3523;SDS011;1776;53.330;11.498;2022-11-20T16:23:57;5.13;;;4.70;;